KMSO/MSO METAR and TAF weather

Enter ICAO airport designator
Station Type Date Time Source
KMSO METAR 2018/12/10 01:53 UTC NOAA

KMSO 100153Z 00000KT 9SM CLR M07/M10 A3028 RMK AO2 SLP305 T10671100


Station Type Date Time Source
KMSO Decoded METAR 2018/12/10 01:53 UTC NOAA

MISSOULA INTERNATIONAL AIRPORT , MT, United States (KMSO) 46-55N 114-06W 975M
Dec 09, 2018 - 08:53 PM EST / 2018.12.10 0153 UTC
Wind: Calm:0
Visibility: 9 mile(s):0
Sky conditions: clear
Temperature: 19.9 F (-6.7 C)
Dew Point: 14.0 F (-10.0 C)
Relative Humidity: 77%
Pressure (altimeter): 30.28 in. Hg (1025 hPa)
ob: KMSO 100153Z 00000KT 9SM CLR M07/M10 A3028 RMK AO2 SLP305 T10671100
cycle: 2

Station Type Date Time Source
KMSO TAF 2018/12/09 18:24 UTC NOAA

TAF KMSO 091722Z 0918/1018 00000KT P6SM BKN250
FM101200 00000KT P6SM OVC050


Example: see airport list